Spencerport, NY (14559)

12:59 PM EDT on March 29, 2015 (GMT -0400)
Spencerport NY | | Change Station
CLOSE
Current Station
Personal Weather Station
Location: Spencerport, NY
Elevation: 574 ft
Nearby Weather Stations

Elev 574 ft 43.18 °N, 77.80 °W | Updated 10 minutes ago

Clear
Clear
36.4 °F
Feels Like 36 °F
N
1.0
Wind Variable Wind from SW
Gusts 12.0 mph

Today
High -- | Low -- °F
--% Chance of Precip.
Yesterday
High -- | Low -- °F
Precip. -- in
6:58 AM 7:33 PM
Waxing Gibbous, 72% visible
Pressure 30.27 in
Visibility 10.0 miles
Clouds Few 20000 ft
Windchill 36 °F
Dew Point 20 °F
Humidity 52%
Rainfall 0.00 in
Snow Depth Not available.
UV 7 out of 12
Pollen 4.00 out of 12
Air Quality Not available.
Flu Activity Not available.
METAR KROC 291654Z 22008KT 200V260 10SM FEW200 03/M11 A3023 RMK AO2 SLP248 T00281106

More Conditions Fewer Conditions

Pressure 30.27 in
Visibility 10.0 miles
Clouds Few 20000 ft
Windchill 36 °F
Dew Point 20 °F
Humidity 52%
Rainfall 0.00 in
Snow Depth Not available.
UV 7 out of 12
Pollen 4.00 out of 12
Air Quality Not available.
Flu Activity Not available.
METAR KROC 291654Z 22008KT 200V260 10SM FEW200 03/M11 A3023 RMK AO2 SLP248 T00281106

More Conditions Fewer Conditions

10-Day Weather Forecast

Almanac

Astronomy

Mar. 29, 2015 Rise Set
Actual Time
Civil Twilight
Nautical Twilight
Astronomical Twilight
Moon
Length of Visible Light
Length of Day
Tomorrow will be .
, % of the Moon is Illuminated

Today's Extremes

State Highs State Lows

Community

WunderPhotos

Upload Photos

1,809,289 photos uploaded!

WunderBlogs® & News

Nearby

Air Quality

  Air Quality AQ Index Pollutant
Not available.

Snow Depth

Station Depth Elevation

Earthquake Activity

City Distance Mag. Time & Date
Minimum magnitude displayed is 2.5.

Coastal Water Temperatures

Place Temperature

Stations

Nearby Weather Stations

Station Location Temp. Windchill Dew Point Humidity Wind Precip. Elev Updated Type